createdAt,value
2024-02-19T00:02:02.265Z,16.95
2024-02-19T00:04:29.705Z,17.45
2024-02-19T00:06:57.071Z,15.07
2024-02-19T00:09:24.328Z,15.88
2024-02-19T00:11:51.603Z,18.70
2024-02-19T00:14:18.978Z,23.58
2024-02-19T00:16:48.415Z,22.17
2024-02-19T00:19:15.791Z,18.58
2024-02-19T00:21:43.201Z,18.52
2024-02-19T00:24:10.405Z,20.70
2024-02-19T00:26:38.016Z,17.40
2024-02-19T00:29:06.372Z,15.88
2024-02-19T00:31:34.677Z,21.25
2024-02-19T00:34:02.192Z,17.25
2024-02-19T00:36:29.660Z,17.92
2024-02-19T00:38:56.966Z,18.90
2024-02-19T00:41:24.282Z,18.65
2024-02-19T00:43:51.491Z,16.88
2024-02-19T00:46:18.797Z,17.20
2024-02-19T00:48:46.284Z,16.33
2024-02-19T00:51:13.529Z,13.05
2024-02-19T00:53:41.460Z,15.60
2024-02-19T00:56:20.049Z,15.88
2024-02-19T00:58:47.482Z,14.45
2024-02-19T01:01:14.783Z,15.00
2024-02-19T01:03:45.409Z,17.30
2024-02-19T01:06:13.126Z,16.08
2024-02-19T01:08:40.319Z,16.00
2024-02-19T01:11:07.642Z,15.93
2024-02-19T01:13:35.028Z,14.80
2024-02-19T01:16:02.461Z,17.02
2024-02-19T01:18:29.826Z,15.00
2024-02-19T01:20:57.287Z,16.10
2024-02-19T01:23:24.687Z,16.08
2024-02-19T01:25:54.270Z,15.90
2024-02-19T01:28:21.742Z,17.38
2024-02-19T01:30:49.977Z,15.85
2024-02-19T01:33:17.228Z,15.75
2024-02-19T01:35:46.226Z,19.13
2024-02-19T01:38:13.598Z,16.92
2024-02-19T01:40:40.856Z,17.88
2024-02-19T01:43:11.494Z,18.23
2024-02-19T01:45:39.518Z,17.00
2024-02-19T01:48:08.085Z,20.83
2024-02-19T01:50:37.244Z,17.83
2024-02-19T01:53:08.795Z,18.05
2024-02-19T01:55:38.447Z,21.92
2024-02-19T01:58:07.949Z,20.08
2024-02-19T02:00:43.945Z,17.05
2024-02-19T02:03:13.107Z,16.42
2024-02-19T02:05:40.457Z,16.70
2024-02-19T02:08:08.033Z,19.75
2024-02-19T02:10:35.336Z,17.17
2024-02-19T02:13:02.582Z,20.23
2024-02-19T02:15:30.085Z,17.15
2024-02-19T02:17:57.410Z,20.23
2024-02-19T02:20:25.129Z,18.92
2024-02-19T02:22:53.493Z,18.65
2024-02-19T02:25:22.772Z,18.60
2024-02-19T02:27:50.026Z,18.27
2024-02-19T02:30:17.443Z,20.20
2024-02-19T02:32:45.146Z,19.33
2024-02-19T02:35:12.694Z,21.25
2024-02-19T02:37:39.881Z,22.73
2024-02-19T02:40:07.875Z,19.02
2024-02-19T02:42:35.116Z,24.90
2024-02-19T02:45:02.383Z,22.20
2024-02-19T02:47:29.727Z,24.02
2024-02-19T02:49:56.973Z,20.48
2024-02-19T02:52:24.375Z,20.48
2024-02-19T02:54:51.783Z,19.20
2024-02-19T02:57:19.485Z,20.55
2024-02-19T02:59:46.712Z,17.98
2024-02-19T03:02:14.156Z,17.25
2024-02-19T03:04:41.443Z,19.83
2024-02-19T03:07:09.190Z,18.00
2024-02-19T03:09:36.548Z,22.15
2024-02-19T03:12:04.075Z,22.35
2024-02-19T03:14:31.232Z,21.65
2024-02-19T03:16:58.507Z,20.35
2024-02-19T03:19:26.150Z,18.77
2024-02-19T03:21:53.634Z,20.27
2024-02-19T03:24:21.717Z,19.50
2024-02-19T03:26:50.310Z,21.55
2024-02-19T03:29:17.389Z,20.98
2024-02-19T03:31:45.434Z,18.33
2024-02-19T03:34:12.889Z,22.60
2024-02-19T03:36:43.294Z,20.27
2024-02-19T03:39:10.580Z,18.80
2024-02-19T03:41:37.759Z,18.85
2024-02-19T03:44:05.113Z,20.88
2024-02-19T03:46:32.441Z,20.73
2024-02-19T03:49:01.611Z,20.05
2024-02-19T03:51:28.985Z,17.77
2024-02-19T03:53:56.464Z,19.23
2024-02-19T03:56:23.822Z,18.35
2024-02-19T03:58:51.377Z,21.40
2024-02-19T04:01:19.024Z,21.08
2024-02-19T04:03:46.397Z,17.83
2024-02-19T04:06:13.672Z,18.13
2024-02-19T04:08:41.449Z,19.77
2024-02-19T04:11:08.799Z,20.75
2024-02-19T04:13:36.006Z,21.42
2024-02-19T04:16:03.318Z,15.93
2024-02-19T04:18:31.406Z,19.08
2024-02-19T04:20:58.709Z,16.58
2024-02-19T04:23:26.128Z,18.77
2024-02-19T04:25:53.244Z,13.98
2024-02-19T04:28:20.447Z,17.08
2024-02-19T04:30:48.312Z,13.90
2024-02-19T04:33:15.823Z,20.40
2024-02-19T04:35:43.413Z,18.23
2024-02-19T04:38:10.667Z,18.05
2024-02-19T04:40:37.923Z,16.08
2024-02-19T04:43:05.765Z,16.73
2024-02-19T04:45:33.503Z,18.50
2024-02-19T04:48:00.817Z,19.70
2024-02-19T04:50:28.123Z,17.25
2024-02-19T04:52:55.299Z,17.52
2024-02-19T04:55:22.751Z,19.58
2024-02-19T04:57:50.190Z,20.63
2024-02-19T05:00:17.663Z,18.55
2024-02-19T05:02:45.680Z,15.75
2024-02-19T05:05:13.219Z,15.35
2024-02-19T05:07:40.499Z,17.35
2024-02-19T05:10:08.852Z,18.98
2024-02-19T05:12:36.671Z,18.73
2024-02-19T05:15:05.462Z,19.67
2024-02-19T05:17:32.890Z,18.52
2024-02-19T05:20:00.080Z,21.05
2024-02-19T05:22:27.467Z,17.40
2024-02-19T05:24:54.829Z,21.85
2024-02-19T05:27:23.405Z,18.70
2024-02-19T05:29:50.703Z,18.35
2024-02-19T05:32:20.245Z,19.15
2024-02-19T05:34:47.994Z,17.13
2024-02-19T05:37:15.998Z,21.05
2024-02-19T05:39:44.297Z,20.95
2024-02-19T05:42:11.578Z,19.42
2024-02-19T05:44:38.941Z,14.63
2024-02-19T05:47:06.250Z,16.10
2024-02-19T05:49:34.122Z,16.40
2024-02-19T05:52:01.641Z,17.40
2024-02-19T05:54:29.269Z,23.95
2024-02-19T05:56:56.716Z,21.15
2024-02-19T05:59:23.925Z,18.45
2024-02-19T06:01:51.602Z,19.80
2024-02-19T06:04:19.230Z,22.15
2024-02-19T06:06:46.631Z,27.17
2024-02-19T06:09:13.903Z,20.25
2024-02-19T06:11:45.557Z,21.08
2024-02-19T06:14:13.578Z,18.25
2024-02-19T06:16:40.870Z,17.38
2024-02-19T06:19:10.097Z,17.73
2024-02-19T06:21:37.535Z,22.45
2024-02-19T06:24:05.072Z,21.65
2024-02-19T06:26:32.233Z,20.30
2024-02-19T06:28:59.536Z,17.25
2024-02-19T06:31:29.189Z,21.27
2024-02-19T06:33:57.456Z,21.60
2024-02-19T06:36:24.760Z,22.40
2024-02-19T06:38:52.058Z,24.10
2024-02-19T06:41:19.536Z,17.02
2024-02-19T06:43:46.982Z,18.42
2024-02-19T06:46:16.606Z,18.92
2024-02-19T06:48:45.180Z,18.50
2024-02-19T06:51:13.106Z,21.05
2024-02-19T06:53:40.551Z,18.80
2024-02-19T06:56:10.121Z,21.60
2024-02-19T06:58:37.430Z,19.67
2024-02-19T07:01:06.353Z,19.65
2024-02-19T07:03:33.897Z,22.33
2024-02-19T07:06:01.257Z,18.13
2024-02-19T07:08:28.602Z,17.92
2024-02-19T07:10:56.059Z,22.50
2024-02-19T07:13:23.771Z,20.60
2024-02-19T07:15:51.018Z,21.92
2024-02-19T07:18:18.797Z,20.63
2024-02-19T07:20:46.102Z,20.83
2024-02-19T07:23:13.340Z,21.88
2024-02-19T07:25:40.823Z,19.55
2024-02-19T07:28:08.204Z,21.50
2024-02-19T07:30:36.958Z,20.52
2024-02-19T07:33:04.718Z,21.13
2024-02-19T07:35:31.861Z,19.75
2024-02-19T07:37:59.211Z,22.30
2024-02-19T07:40:26.620Z,18.55
2024-02-19T07:42:53.962Z,15.68
2024-02-19T07:45:21.093Z,19.50
2024-02-19T07:47:48.380Z,18.48
2024-02-19T07:50:16.121Z,19.00
2024-02-19T07:52:44.872Z,18.90
2024-02-19T07:55:12.375Z,16.13
2024-02-19T07:57:39.982Z,19.40
2024-02-19T08:00:08.034Z,14.32
2024-02-19T08:02:35.498Z,14.65
2024-02-19T08:05:03.294Z,15.38
2024-02-19T08:07:30.815Z,15.20
2024-02-19T08:09:58.150Z,15.50
2024-02-19T08:12:25.635Z,15.18
2024-02-19T08:14:53.973Z,14.57
2024-02-19T08:17:21.304Z,14.48
2024-02-19T08:19:48.409Z,15.55
2024-02-19T08:22:15.763Z,14.93
2024-02-19T08:24:43.054Z,19.95
2024-02-19T08:27:10.472Z,21.75
2024-02-19T08:29:37.757Z,17.52
2024-02-19T08:32:05.424Z,19.17
2024-02-19T08:34:32.721Z,17.40
2024-02-19T08:37:00.446Z,17.63
2024-02-19T08:39:27.913Z,16.85
2024-02-19T08:41:58.038Z,17.30
2024-02-19T08:44:25.409Z,19.77
2024-02-19T08:46:52.556Z,19.42
2024-02-19T08:49:20.266Z,14.18
2024-02-19T08:51:47.523Z,15.48
2024-02-19T08:54:14.762Z,17.90
2024-02-19T08:56:42.531Z,15.85
2024-02-19T08:59:09.651Z,15.02
2024-02-19T09:01:36.984Z,15.65
2024-02-19T09:04:04.499Z,14.15
2024-02-19T09:06:31.772Z,15.50
2024-02-19T09:09:00.713Z,18.55
2024-02-19T09:11:28.271Z,16.63
2024-02-19T09:13:55.620Z,17.58
2024-02-19T09:16:23.005Z,19.38
2024-02-19T09:18:50.565Z,17.25
2024-02-19T09:21:18.058Z,19.20
2024-02-19T09:23:46.399Z,18.65
2024-02-19T09:26:14.777Z,16.58
2024-02-19T09:28:42.172Z,23.52
2024-02-19T09:31:09.809Z,20.10
2024-02-19T09:33:37.519Z,18.88
2024-02-19T09:36:06.737Z,19.33
2024-02-19T09:38:34.397Z,21.08
2024-02-19T09:41:05.485Z,19.63
2024-02-19T09:43:33.247Z,19.95
2024-02-19T09:46:05.170Z,17.85
2024-02-19T09:48:34.168Z,22.50
2024-02-19T09:51:02.099Z,21.95
2024-02-19T09:53:34.144Z,19.55
2024-02-19T09:56:02.020Z,19.67
2024-02-19T09:58:30.336Z,18.48
2024-02-19T10:00:57.830Z,19.33
2024-02-19T10:03:25.152Z,21.65
2024-02-19T10:05:53.323Z,18.95
2024-02-19T10:08:21.712Z,17.30
2024-02-19T10:10:57.692Z,16.20
2024-02-19T10:13:25.432Z,16.67
2024-02-19T10:15:52.790Z,18.23
2024-02-19T10:18:21.830Z,17.70
2024-02-19T10:20:52.126Z,14.70
2024-02-19T10:23:23.986Z,17.35
2024-02-19T10:25:52.278Z,16.17
2024-02-19T10:28:22.751Z,15.63
2024-02-19T10:30:50.442Z,17.45
2024-02-19T10:33:17.852Z,17.38
2024-02-19T10:35:46.568Z,14.35
2024-02-19T10:38:15.271Z,14.38
2024-02-19T10:40:42.455Z,13.80
2024-02-19T10:43:11.373Z,14.38
2024-02-19T10:45:39.610Z,16.15
2024-02-19T10:48:10.517Z,13.23
2024-02-19T10:50:38.407Z,13.38
2024-02-19T10:53:07.979Z,14.52
2024-02-19T10:55:48.818Z,15.95
2024-02-19T10:58:26.974Z,12.77
2024-02-19T11:00:58.937Z,12.75
2024-02-19T11:03:26.629Z,12.60
2024-02-19T11:05:54.178Z,13.02
2024-02-19T11:08:23.738Z,12.70
2024-02-19T11:10:56.533Z,13.65
2024-02-19T11:13:28.159Z,13.00
2024-02-19T11:15:56.549Z,13.60
2024-02-19T11:18:24.119Z,14.82
2024-02-19T11:20:51.980Z,13.55
2024-02-19T11:23:21.442Z,14.65
2024-02-19T11:25:49.185Z,12.77
2024-02-19T11:28:16.752Z,15.63
2024-02-19T11:30:45.731Z,13.43
2024-02-19T11:33:13.668Z,15.32
2024-02-19T11:35:44.765Z,13.93
2024-02-19T11:38:12.324Z,13.52
2024-02-19T11:40:39.882Z,15.63
2024-02-19T11:43:07.891Z,13.18
2024-02-19T11:45:39.214Z,14.43
2024-02-19T11:48:07.141Z,12.95
2024-02-19T11:50:34.463Z,13.52
2024-02-19T11:53:04.391Z,13.65
2024-02-19T11:55:34.793Z,13.20
2024-02-19T11:58:03.553Z,13.38
2024-02-19T12:00:32.750Z,15.57
2024-02-19T12:03:01.504Z,15.15
2024-02-19T12:05:29.359Z,13.70
2024-02-19T12:07:57.463Z,14.80
2024-02-19T12:10:25.398Z,15.10
2024-02-19T12:12:53.188Z,16.67
2024-02-19T12:15:20.840Z,14.40
2024-02-19T12:17:53.712Z,14.52
2024-02-19T12:20:21.707Z,15.43
2024-02-19T12:22:49.290Z,12.18
2024-02-19T12:25:17.144Z,13.70
2024-02-19T12:27:44.555Z,16.00
2024-02-19T12:30:12.169Z,16.25
2024-02-19T12:32:40.625Z,15.88
2024-02-19T12:35:08.510Z,15.80
2024-02-19T12:37:36.029Z,15.40
2024-02-19T12:40:04.485Z,14.18
2024-02-19T12:42:32.018Z,15.93
2024-02-19T12:44:59.422Z,17.35
2024-02-19T12:47:27.393Z,15.98
2024-02-19T12:49:54.868Z,14.52
2024-02-19T12:52:25.621Z,16.63
2024-02-19T12:54:53.131Z,15.57
2024-02-19T12:57:22.487Z,15.15
2024-02-19T12:59:49.999Z,16.33
2024-02-19T13:02:17.872Z,14.90
2024-02-19T13:04:45.329Z,15.25
2024-02-19T13:07:12.811Z,13.60
2024-02-19T13:09:40.872Z,15.05
2024-02-19T13:12:10.558Z,14.68
2024-02-19T13:14:38.124Z,14.20
2024-02-19T13:17:13.230Z,16.17
2024-02-19T13:19:43.113Z,14.43
2024-02-19T13:22:10.881Z,14.07
2024-02-19T13:24:38.330Z,13.57
2024-02-19T13:27:06.009Z,14.88
2024-02-19T13:29:34.345Z,16.58
2024-02-19T13:32:01.987Z,15.27
2024-02-19T13:34:29.271Z,15.00
2024-02-19T13:36:56.716Z,14.20
2024-02-19T13:39:24.492Z,13.63
2024-02-19T13:41:53.090Z,13.07
2024-02-19T13:44:20.708Z,12.57
2024-02-19T13:46:48.087Z,15.95
2024-02-19T13:49:15.593Z,14.63
2024-02-19T13:51:43.313Z,13.07
2024-02-19T13:54:10.918Z,12.60
2024-02-19T13:56:38.201Z,13.95
2024-02-19T13:59:08.299Z,16.48
2024-02-19T14:01:39.405Z,13.77
2024-02-19T14:04:08.707Z,14.18
2024-02-19T14:06:36.288Z,16.88
2024-02-19T14:09:03.738Z,14.75
2024-02-19T14:11:31.124Z,14.57
2024-02-19T14:14:02.443Z,14.93
2024-02-19T14:16:31.671Z,14.63
2024-02-19T14:19:00.917Z,15.95
2024-02-19T14:21:30.653Z,15.40
2024-02-19T14:23:58.022Z,18.63
2024-02-19T14:26:25.712Z,18.77
2024-02-19T14:28:54.406Z,16.52
2024-02-19T14:31:23.577Z,17.60
2024-02-19T14:33:52.458Z,18.58
2024-02-19T14:36:21.049Z,18.42
2024-02-19T14:38:48.631Z,19.13
2024-02-19T14:41:15.862Z,20.77
2024-02-19T14:43:43.571Z,18.40
2024-02-19T14:46:11.351Z,21.58
2024-02-19T14:48:39.724Z,17.75
2024-02-19T14:51:12.370Z,23.30
2024-02-19T14:53:40.628Z,18.50
2024-02-19T14:56:09.704Z,19.98
2024-02-19T14:58:36.994Z,20.45
2024-02-19T15:01:04.517Z,23.70
2024-02-19T15:03:32.076Z,19.35
2024-02-19T15:05:59.811Z,20.77
2024-02-19T15:08:27.637Z,20.70
2024-02-19T15:10:54.993Z,23.15
2024-02-19T15:13:23.238Z,23.05
2024-02-19T15:15:50.582Z,24.25
2024-02-19T15:18:18.040Z,20.75
2024-02-19T15:20:47.103Z,23.48
2024-02-19T15:23:15.467Z,23.85
2024-02-19T15:25:43.465Z,21.73
2024-02-19T15:28:10.918Z,19.73
2024-02-19T15:30:39.815Z,25.98
2024-02-19T15:33:07.687Z,26.63
2024-02-19T15:35:35.696Z,22.02
2024-02-19T15:38:03.074Z,22.52
2024-02-19T15:40:31.325Z,23.67
2024-02-19T15:42:58.598Z,22.88
2024-02-19T15:45:26.154Z,22.15
2024-02-19T15:47:53.617Z,24.35
2024-02-19T15:50:21.254Z,23.80
2024-02-19T15:52:55.679Z,24.45
2024-02-19T15:55:29.321Z,23.50
2024-02-19T15:57:58.396Z,23.38
2024-02-19T16:00:25.828Z,28.58
2024-02-19T16:02:53.203Z,26.95
2024-02-19T16:05:20.430Z,27.77
2024-02-19T16:07:50.520Z,27.23
2024-02-19T16:10:18.122Z,25.15
2024-02-19T16:12:46.431Z,27.92
2024-02-19T16:15:14.478Z,30.40
2024-02-19T16:17:42.652Z,27.30
2024-02-19T16:20:10.454Z,28.48
2024-02-19T16:22:40.167Z,28.02
2024-02-19T16:25:08.545Z,28.02
2024-02-19T16:27:37.480Z,29.65
2024-02-19T16:30:08.108Z,31.35
2024-02-19T16:32:37.812Z,30.88
2024-02-19T16:35:05.971Z,28.95
2024-02-19T16:37:33.492Z,29.10
2024-02-19T16:40:00.874Z,27.13
2024-02-19T16:42:28.079Z,26.63
2024-02-19T16:44:55.480Z,27.38
2024-02-19T16:47:22.816Z,27.05
2024-02-19T16:49:50.117Z,34.35
2024-02-19T16:52:17.626Z,28.15
2024-02-19T16:54:45.710Z,30.65
2024-02-19T16:57:13.076Z,26.88
2024-02-19T16:59:40.570Z,28.25
2024-02-19T17:02:08.390Z,27.98
2024-02-19T17:04:35.868Z,27.23
2024-02-19T17:07:05.342Z,32.08
2024-02-19T17:09:35.204Z,29.45
2024-02-19T17:12:02.966Z,35.42
2024-02-19T17:14:30.236Z,42.35
2024-02-19T17:17:00.366Z,39.10
2024-02-19T17:19:28.023Z,42.97
2024-02-19T17:21:55.650Z,34.05
2024-02-19T17:24:23.500Z,43.47
2024-02-19T17:26:51.874Z,46.35
2024-02-19T17:29:19.173Z,38.28
2024-02-19T17:31:49.745Z,40.22
2024-02-19T17:34:18.819Z,38.35
2024-02-19T17:36:47.769Z,38.38
2024-02-19T17:39:15.308Z,37.58
2024-02-19T17:41:42.479Z,38.28
2024-02-19T17:44:11.007Z,38.70
2024-02-19T17:46:38.302Z,35.17
2024-02-19T17:49:09.682Z,34.00
2024-02-19T17:51:37.576Z,34.25
2024-02-19T17:54:05.103Z,31.23
2024-02-19T17:56:32.396Z,33.80
2024-02-19T17:59:00.040Z,41.67
2024-02-19T18:01:27.556Z,40.03
2024-02-19T18:03:56.104Z,41.22
2024-02-19T18:06:23.574Z,38.13
2024-02-19T18:08:52.366Z,54.65
2024-02-19T18:11:20.434Z,47.15
2024-02-19T18:13:47.832Z,52.75
2024-02-19T18:16:16.207Z,50.30
2024-02-19T18:18:45.979Z,45.00
2024-02-19T18:21:13.394Z,55.30
2024-02-19T18:23:40.821Z,52.50
2024-02-19T18:26:08.679Z,59.75
2024-02-19T18:28:37.159Z,62.35
2024-02-19T18:31:05.585Z,75.88
2024-02-19T18:33:33.109Z,73.82
2024-02-19T18:36:00.621Z,56.55
2024-02-19T18:38:27.929Z,53.72
2024-02-19T18:40:57.708Z,52.47
2024-02-19T18:43:26.980Z,52.33
2024-02-19T18:45:54.597Z,50.42
2024-02-19T18:48:22.605Z,44.00
2024-02-19T18:50:50.701Z,48.05
2024-02-19T18:53:18.067Z,50.95
2024-02-19T18:55:45.680Z,44.40
2024-02-19T18:58:13.389Z,55.65
2024-02-19T19:00:40.762Z,49.30
2024-02-19T19:03:08.094Z,42.45
2024-02-19T19:05:35.938Z,44.67
2024-02-19T19:08:03.328Z,34.08
2024-02-19T19:10:30.624Z,33.53
2024-02-19T19:12:57.812Z,31.40
2024-02-19T19:15:25.053Z,31.95
2024-02-19T19:17:52.446Z,27.90
2024-02-19T19:20:20.029Z,28.73
2024-02-19T19:22:47.549Z,31.02
2024-02-19T19:25:15.540Z,32.83
2024-02-19T19:27:42.721Z,29.17
2024-02-19T19:30:10.353Z,27.02
2024-02-19T19:32:37.589Z,27.42
2024-02-19T19:35:06.333Z,30.00
2024-02-19T19:37:34.145Z,30.05
2024-02-19T19:40:05.438Z,32.88
2024-02-19T19:42:32.853Z,34.40
2024-02-19T19:45:00.219Z,34.88
2024-02-19T19:47:31.500Z,39.13
2024-02-19T19:49:58.938Z,35.03
2024-02-19T19:52:26.424Z,42.08
2024-02-19T19:54:54.637Z,42.17
2024-02-19T19:57:28.021Z,55.25
2024-02-19T19:59:56.230Z,54.08
2024-02-19T20:02:24.581Z,54.40
2024-02-19T20:04:52.946Z,51.05
2024-02-19T20:07:20.437Z,50.55
2024-02-19T20:09:48.081Z,40.22
2024-02-19T20:12:15.399Z,45.05
2024-02-19T20:14:42.615Z,45.95
2024-02-19T20:17:09.877Z,43.22
2024-02-19T20:19:37.214Z,44.22
2024-02-19T20:22:04.719Z,37.90
2024-02-19T20:24:32.056Z,38.22
2024-02-19T20:27:02.165Z,39.63
2024-02-19T20:29:29.476Z,36.28
2024-02-19T20:32:02.298Z,33.88
2024-02-19T20:34:31.153Z,33.28
2024-02-19T20:36:58.526Z,28.55
2024-02-19T20:39:28.704Z,29.30
2024-02-19T20:41:56.134Z,28.30
2024-02-19T20:44:23.422Z,29.77
2024-02-19T20:46:50.776Z,28.95
2024-02-19T20:49:18.037Z,31.83
2024-02-19T20:51:46.204Z,27.92
2024-02-19T20:54:13.447Z,30.05
2024-02-19T20:56:44.430Z,31.33
2024-02-19T20:59:11.889Z,30.35
2024-02-19T21:01:39.442Z,26.67
2024-02-19T21:04:08.670Z,29.27
2024-02-19T21:06:36.279Z,26.40
2024-02-19T21:09:03.721Z,22.17
2024-02-19T21:11:32.897Z,24.70
2024-02-19T21:14:02.630Z,28.75
2024-02-19T21:16:30.148Z,27.63
2024-02-19T21:18:57.775Z,43.55
2024-02-19T21:21:30.512Z,30.70
2024-02-19T21:24:03.578Z,32.45
2024-02-19T21:26:32.167Z,30.70
2024-02-19T21:28:59.633Z,25.55
2024-02-19T21:31:27.219Z,28.30
2024-02-19T21:33:54.815Z,25.30
2024-02-19T21:36:22.514Z,30.20
2024-02-19T21:38:50.803Z,28.50
2024-02-19T21:41:18.267Z,23.08
2024-02-19T21:43:45.824Z,22.92
2024-02-19T21:46:13.593Z,24.63
2024-02-19T21:48:43.788Z,25.38
2024-02-19T21:51:11.157Z,25.42
2024-02-19T21:53:38.537Z,24.23
2024-02-19T21:56:06.188Z,26.27
2024-02-19T21:58:33.389Z,28.30
2024-02-19T22:01:01.028Z,33.33
2024-02-19T22:03:28.523Z,33.00
2024-02-19T22:05:55.799Z,33.30
2024-02-19T22:08:23.258Z,36.35
2024-02-19T22:10:50.776Z,29.92
2024-02-19T22:13:18.272Z,31.58
2024-02-19T22:15:48.380Z,29.95
2024-02-19T22:18:15.756Z,25.45
2024-02-19T22:20:43.125Z,25.65
2024-02-19T22:23:10.362Z,25.15
2024-02-19T22:25:37.840Z,25.83
2024-02-19T22:28:06.118Z,22.27
2024-02-19T22:30:34.063Z,24.90
2024-02-19T22:33:01.468Z,27.35
2024-02-19T22:35:28.877Z,24.30
2024-02-19T22:37:56.179Z,23.50
2024-02-19T22:40:23.540Z,25.33
2024-02-19T22:42:52.441Z,28.30
2024-02-19T22:45:20.279Z,33.53
2024-02-19T22:47:47.906Z,29.27
2024-02-19T22:50:15.386Z,40.33
2024-02-19T22:52:43.803Z,24.85
2024-02-19T22:55:11.763Z,29.33
2024-02-19T22:57:39.383Z,26.20
2024-02-19T23:00:28.897Z,26.90
2024-02-19T23:02:56.414Z,24.33
2024-02-19T23:05:24.906Z,28.20
2024-02-19T23:07:55.272Z,24.58
2024-02-19T23:10:23.255Z,26.58
2024-02-19T23:12:51.610Z,30.63
2024-02-19T23:15:19.581Z,27.85
2024-02-19T23:17:47.042Z,29.63
2024-02-19T23:20:14.657Z,25.00
2024-02-19T23:22:45.233Z,27.73
2024-02-19T23:25:14.038Z,26.83
2024-02-19T23:27:41.431Z,29.45
2024-02-19T23:30:09.129Z,27.08
2024-02-19T23:32:37.772Z,27.15
2024-02-19T23:35:06.666Z,29.38
2024-02-19T23:37:34.472Z,30.92
2024-02-19T23:40:02.176Z,32.63
2024-02-19T23:42:29.583Z,24.15
2024-02-19T23:44:57.580Z,26.00
2024-02-19T23:47:25.230Z,21.73
2024-02-19T23:49:52.531Z,21.60
2024-02-19T23:52:19.774Z,23.00
2024-02-19T23:54:47.242Z,21.33
2024-02-19T23:57:14.489Z,21.42
2024-02-19T23:59:41.870Z,22.35
